Historyczne dane pomiarowe

Dodano dane terminowe – wersja testowa.

Dane z okresu 1951-2019

Wersja bazy: 1.34 [2019-03-16, lista zmian], aktualizacja planowana na 2019-04-15

Dane meteo z obszaru Polski uzyskane na podstawie danych udostępnionych przez Instytut Meteorologii i Gospodarki Wodnej – Państwowy Instytut Badawczy.

 

Wybierz Datę:    

       

TemperaturaWilgotnośćWiatrCiśnienieOpadyŚniegCzas trwania zjawisk
 Stacja t tx tn tng RH VA  wxwx mslp ppp RRR   cm mm wxwxwxwxwxwxwx
1983-08-14 13.8 17.4 11.3- 73.3- 4.3 1.7---- 0.0------------
1983-08-13 15.0 23.2 12.5- 80.8- 6.3 3.3---- 1.8------------
1983-08-12 20.9 26.6 13.9- 66.0- 4.0 1.0---- 3.8------------
1983-08-11 20.1 26.3 11.4- 67.0- 1.0 0.3---- 0.0------------
1983-08-10 20.0 26.5 14.9- 77.0- 2.0 0.7---- 0.0------------
1983-08-09 18.9 25.6 14.5- 79.0- 5.0 0.3---- 0.0------------
1983-08-08 17.6 22.0 14.4- 89.5- 7.0 1.3---- 2.6------------
1983-08-07 14.3 16.8 11.9- 93.5- 8.0 1.3---- 2.0------------
1983-08-06 14.7 17.2 12.1- 85.0- 5.0 0.7---- 0.2------------
1983-08-05 13.4 18.0 9.9- 80.8- 7.3 2.0---- 0.2------------
1983-08-04 10.5 12.0 9.5- 94.0- 8.0 3.0---- 11.8------------
1983-08-03 13.9 21.0 10.9- 95.0- 8.0 4.3---- 17.6------------
1983-08-02 21.5 30.1 18.5- 71.5- 6.7 2.0---- 0.1------------
1983-08-01 25.2 33.9 13.4- 44.0- 0.0 4.7---- 0.0------------
1983-07-31 20.1 29.1 9.1- 54.3- 0.0 1.3---- 0.0------------
1983-07-30 20.1 25.3 16.3- 68.3- 4.0 3.3---- 0.0------------
1983-07-29 20.0 26.1 16.5- 68.5- 6.0 2.7---- 0.8------------
1983-07-28 24.5 32.3 20.8- 61.8- 0.0 1.3---- 0.2------------
1983-07-27 26.6 37.1 15.5- 49.0- 1.3 2.0---- 0.0------------
1983-07-26 20.8 29.9 10.9- 51.5- 0.0 1.3---- 0.0------------
1983-07-25 18.6 25.1 9.3- 65.3- 1.3 0.7---- 0.0------------
1983-07-24 19.4 26.7 10.5- 67.5- 1.7 1.7---- 0.1------------
1983-07-23 19.6 25.6 14.7- 65.0- 2.7 2.7---- 0.0------------
1983-07-22 15.0 19.5 11.5- 73.8- 4.0 1.3---- 0.0------------
1983-07-21 13.9 17.5 10.1- 60.3- 3.0 3.7---- 0.0------------
1983-07-20 15.5 22.2 11.5- 82.3- 5.3 3.0---- 2.9------------
1983-07-19 23.3 28.5 18.4- 64.3- 2.7 1.3---- 10.7------------
1983-07-18 25.6 34.3 15.5- 51.8- 0.7 1.7---- 0.2------------
1983-07-17 23.0 29.3 14.7- 63.5- 1.3 0.7---- 0.0------------
1983-07-16 21.0 29.6 14.4- 62.3- 2.7 0.7---- 2.1------------
1983-07-15 21.0 27.1 14.9- 65.8- 1.3 1.3---- 0.0------------
1983-07-14 18.1 21.6 15.6- 76.5- 2.0 2.0---- 0.0------------
1983-07-13 20.4 26.5 14.9- 70.0- 2.7 2.7---- 0.9------------
1983-07-12 22.0 30.1 18.0- 69.3- 3.3 2.7---- 4.0------------
1983-07-11 22.3 29.8 14.4- 56.3- 3.3 2.0---- 0.0------------
1983-07-10 22.9 29.7 12.0- 51.3- 0.3 1.3---- 0.0------------
1983-07-09 21.3 29.3 9.9- 47.3- 0.0 1.0---- 0.0------------
1983-07-08 21.5 28.1 11.9- 46.5- 0.0 1.3---- 0.0------------
1983-07-07 23.0 30.6 13.9- 61.3- 1.3 1.3---- 0.0------------
1983-07-06 21.1 29.3 12.3- 67.3- 0.0 1.3---- 0.0------------
1983-07-05 19.4 25.7 11.9- 70.8- 0.0 1.3---- 0.0------------
1983-07-04 19.4 26.6 10.7- 59.5- 1.3 0.0---- 0.0------------
1983-07-03 18.3 24.6 10.4- 65.3- 4.0 0.3---- 0.0------------
1983-07-02 17.2 21.2 13.9- 72.3- 2.7 2.0---- 0.0------------
1983-07-01 18.9 25.1 13.1- 69.0- 4.3 1.3---- 1.3------------
1983-06-30 18.3 23.5 10.3- 67.5- 4.3 1.7---- 0.0------------
1983-06-29 15.6 20.0 8.9- 60.0- 4.7 1.3---- 0.0------------
1983-06-28 15.2 18.0 13.2- 71.3- 4.3 2.0---- 0.0------------
1983-06-27 19.8 25.6 14.7- 75.8- 4.0 1.3---- 6.0------------
1983-06-26 20.2 26.3 16.2- 77.3- 2.3 1.0---- 1.0------------
1983-06-25 22.8 29.1 18.0- 53.8- 2.3 3.3---- 2.0------------
1983-06-24 20.0 27.6 6.7- 47.8- 0.0 1.3---- 0.0------------
1983-06-23 15.2 21.5 5.4- 60.5- 0.0 2.0---- 0.0------------
1983-06-22 15.7 22.4 10.7- 64.8- 3.7 2.0---- 0.0------------
1983-06-21 18.7 24.9 10.9- 69.3- 0.3 1.0---- 0.0------------
1983-06-20 16.9 21.4 12.9- 82.3- 4.3 1.0---- 0.0------------
1983-06-19 14.1 16.5 11.7- 86.0- 5.3 2.7---- 4.8------------
1983-06-18 11.6 15.8 5.9- 82.3- 6.7 2.0---- 0.0------------
1983-06-17 11.5 14.5 8.9- 71.5- 5.0 2.3---- 0.0------------
1983-06-16 11.1 15.0 7.9- 81.0- 5.7 2.7---- 0.4------------
352.9 ms

 

Źródłem pochodzenia danych jest Instytut Meteorologii i Gospodarki Wodnej – Państwowy Instytut Badawczy. Dane Instytutu Meteorologii i Gospodarki Wodnej – Państwowego Instytutu Badawczego zostały przetworzone.

Dane źródłowe można odnaleźć na stronie https://dane.imgw.pl